Time;durP1;ratioP1;P1;durP2;ratioP2;P2;SDS_P1;SDS_P2;PMS_P1;PMS_P2;Temp;Humidity;BMP_temperature;BMP_pressure;BME280_temperature;BME280_humidity;BME280_pressure;Samples;Min_cycle;Max_cycle;Signal;HPM_P1;HPM_P2
2023/12/14 00:02:09;;;;;;;;;;;;;;;5.81;100.00;100683.44;4986112;28;19980;-76
2023/12/14 00:04:34;;;;;;;;;;;;;;;5.85;100.00;100693.81;4986128;28;20008;-76
2023/12/14 00:06:59;;;;;;;;;;;;;;;5.76;100.00;100709.50;4971335;28;19921;-77
2023/12/14 00:09:25;;;;;;;;;;;;;;;5.78;100.00;100713.81;4969716;28;19925;-77
2023/12/14 00:11:50;;;;;;;;;;;;;;;5.79;100.00;100727.97;4987727;28;20321;-76
2023/12/14 00:14:15;;;;;;;;;;;;;;;5.75;100.00;100727.31;4972408;28;20322;-76
2023/12/14 00:16:40;;;;;;;;;;;;;;;5.75;100.00;100753.06;4990368;28;20296;-77
2023/12/14 00:19:06;;;;;;;;;;;;;;;5.67;100.00;100746.41;4967397;28;19925;-76
2023/12/14 00:21:31;;;;;;;;;;;;;;;5.66;100.00;100755.34;4991299;28;19949;-77
2023/12/14 00:23:56;;;;;;;;;;;;;;;5.64;100.00;100767.03;4989133;28;19936;-76
2023/12/14 00:26:21;;;;;;;;;;;;;;;5.61;100.00;100762.75;4992523;28;19980;-77
2023/12/14 00:28:46;;;;;;;;;;;;;;;5.61;100.00;100778.72;4991367;28;20014;-76
2023/12/14 00:31:12;;;;;;;;;;;;;;;5.68;100.00;100784.53;4982605;28;19953;-76
2023/12/14 00:33:37;;;;;;;;;;;;;;;5.75;100.00;100782.38;4978507;28;20308;-77
2023/12/14 00:36:02;;;;;;;;;;;;;;;5.71;100.00;100782.56;4969206;28;19922;-76
2023/12/14 00:38:27;;;;;;;;;;;;;;;5.70;100.00;100791.50;4969306;28;19921;-77
2023/12/14 00:40:53;;;;;;;;;;;;;;;5.58;100.00;100804.66;4983629;28;20315;-76
2023/12/14 00:43:18;;;;;;;;;;;;;;;5.60;100.00;100813.41;4970324;28;22150;-76
2023/12/14 00:45:43;;;;;;;;;;;;;;;5.61;100.00;100817.81;4984407;28;19929;-76
2023/12/14 00:48:08;;;;;;;;;;;;;;;5.54;100.00;100819.97;4984030;28;19921;-76
2023/12/14 00:50:33;;;;;;;;;;;;;;;5.59;100.00;100812.56;4966374;28;20020;-77
2023/12/14 00:52:59;;;;;;;;;;;;;;;5.60;100.00;100818.75;4978082;28;19917;-77
2023/12/14 00:55:24;;;;;;;;;;;;;;;5.61;100.00;100824.00;4983530;28;20124;-77
2023/12/14 00:57:49;;;;;;;;;;;;;;;5.58;100.00;100832.16;4968258;28;20284;-78
2023/12/14 01:00:14;;;;;;;;;;;;;;;5.42;100.00;100841.97;4975153;28;20321;-76
2023/12/14 01:02:40;;;;;;;;;;;;;;;5.40;100.00;100850.03;4972863;28;20353;-76
2023/12/14 01:05:05;;;;;;;;;;;;;;;5.32;100.00;100846.94;4966845;28;20023;-76
2023/12/14 01:07:30;;;;;;;;;;;;;;;5.19;100.00;100841.44;4988288;28;19921;-76
2023/12/14 01:09:55;;;;;;;;;;;;;;;5.20;100.00;100852.00;4980788;28;19937;-76
2023/12/14 01:12:23;;;;;;;;;;;;;;;5.16;100.00;100858.44;4982881;28;19926;-77
2023/12/14 01:14:48;;;;;;;;;;;;;;;5.18;100.00;100863.66;4985943;28;19917;-76
2023/12/14 01:17:13;;;;;;;;;;;;;;;5.17;100.00;100859.28;4981174;28;19949;-76
2023/12/14 01:19:42;;;;;;;;;;;;;;;5.17;100.00;100869.94;4986129;28;19970;-76
2023/12/14 01:22:07;;;;;;;;;;;;;;;5.15;100.00;100874.50;4973712;28;19928;-76
2023/12/14 01:24:32;;;;;;;;;;;;;;;5.15;100.00;100871.84;4973858;28;19921;-76
2023/12/14 01:26:57;;;;;;;;;;;;;;;5.08;100.00;100869.53;4983207;28;19928;-77
2023/12/14 01:29:22;;;;;;;;;;;;;;;5.08;100.00;100880.16;4985323;28;19987;-77
2023/12/14 01:31:48;;;;;;;;;;;;;;;5.12;100.00;100880.00;4971125;28;20405;-76
2023/12/14 01:34:15;;;;;;;;;;;;;;;5.12;100.00;100888.81;4970948;28;20366;-77
2023/12/14 01:36:40;;;;;;;;;;;;;;;5.03;100.00;100898.19;4976209;28;19925;-77
2023/12/14 01:39:05;;;;;;;;;;;;;;;5.12;100.00;100904.78;4987410;28;20258;-77
2023/12/14 01:41:31;;;;;;;;;;;;;;;5.09;100.00;100912.94;4969677;28;20579;-77
2023/12/14 01:43:56;;;;;;;;;;;;;;;5.17;100.00;100913.41;4974805;28;20888;-77
2023/12/14 01:46:21;;;;;;;;;;;;;;;5.19;100.00;100916.84;4980610;28;19939;-76
2023/12/14 01:48:46;;;;;;;;;;;;;;;5.17;100.00;100923.16;4982334;28;19925;-76
2023/12/14 01:51:11;;;;;;;;;;;;;;;5.07;100.00;100933.44;4986866;28;19917;-76
2023/12/14 01:53:37;;;;;;;;;;;;;;;4.79;100.00;100895.88;4983951;28;19949;-77
2023/12/14 01:56:02;;;;;;;;;;;;;;;5.12;100.00;100949.19;4984101;28;20039;-76
2023/12/14 01:58:27;;;;;;;;;;;;;;;5.04;100.00;100947.78;4983675;28;20018;-77
2023/12/14 02:01:10;;;;;;;;;;;;;;;5.05;100.00;100965.50;4987781;28;19975;-76
2023/12/14 02:03:35;;;;;;;;;;;;;;;5.06;100.00;100969.88;4983598;28;20371;-76
2023/12/14 02:06:00;;;;;;;;;;;;;;;4.96;100.00;100968.63;4966144;28;20797;-77
2023/12/14 02:08:27;;;;;;;;;;;;;;;5.00;100.00;100972.00;4972012;28;20378;-76
2023/12/14 02:10:52;;;;;;;;;;;;;;;4.91;100.00;100979.50;4975392;28;20301;-75
2023/12/14 02:13:17;;;;;;;;;;;;;;;4.90;100.00;100982.25;4987365;28;19922;-76
2023/12/14 02:15:42;;;;;;;;;;;;;;;4.92;100.00;100977.69;4983744;28;20216;-76
2023/12/14 02:18:07;;;;;;;;;;;;;;;4.97;100.00;100983.66;4970452;28;20107;-76
2023/12/14 02:20:33;;;;;;;;;;;;;;;4.92;100.00;100986.56;4986573;28;19925;-76
2023/12/14 02:22:58;;;;;;;;;;;;;;;4.99;100.00;100986.25;4987504;28;20265;-76
2023/12/14 02:25:23;;;;;;;;;;;;;;;4.92;100.00;100993.66;4980623;28;19929;-76
2023/12/14 02:27:50;;;;;;;;;;;;;;;4.79;100.00;101012.06;4973630;28;19925;-76
2023/12/14 02:30:15;;;;;;;;;;;;;;;4.89;100.00;101015.97;4969101;28;19921;-76
2023/12/14 02:32:40;;;;;;;;;;;;;;;4.90;100.00;101016.84;4988886;28;19921;-76
2023/12/14 02:35:06;;;;;;;;;;;;;;;4.91;100.00;101024.75;4967325;28;19932;-76
2023/12/14 02:37:32;;;;;;;;;;;;;;;4.93;100.00;101036.19;4980875;28;19968;-76
2023/12/14 02:39:57;;;;;;;;;;;;;;;4.96;100.00;101035.16;4984909;28;20368;-76
2023/12/14 02:42:22;;;;;;;;;;;;;;;4.95;100.00;101034.28;4985850;28;19991;-76
2023/12/14 02:44:47;;;;;;;;;;;;;;;4.86;100.00;101032.09;4971596;28;19984;-76
2023/12/14 02:47:13;;;;;;;;;;;;;;;4.85;100.00;101032.19;4975374;28;19964;-75
2023/12/14 02:49:38;;;;;;;;;;;;;;;4.80;100.00;101043.03;4969850;28;19929;-76
2023/12/14 02:52:03;;;;;;;;;;;;;;;4.85;100.00;101048.16;4970496;28;19921;-76
2023/12/14 02:54:28;;;;;;;;;;;;;;;4.93;100.00;101054.81;4980086;28;20228;-76
2023/12/14 02:56:54;;;;;;;;;;;;;;;4.84;100.00;101065.06;4984385;28;20220;-76
2023/12/14 02:59:19;;;;;;;;;;;;;;;4.85;100.00;101072.09;4984842;28;19969;-77
2023/12/14 03:01:44;;;;;;;;;;;;;;;4.83;100.00;101074.81;4984746;28;20012;-77
2023/12/14 03:04:09;;;;;;;;;;;;;;;4.84;100.00;101081.84;4987292;28;19925;-76
2023/12/14 03:06:34;;;;;;;;;;;;;;;4.82;100.00;101082.88;4976067;28;19959;-76
2023/12/14 03:09:00;;;;;;;;;;;;;;;4.86;100.00;101082.66;4965638;28;19930;-76
2023/12/14 03:11:25;;;;;;;;;;;;;;;4.83;100.00;101081.94;4972991;28;19925;-77
2023/12/14 03:13:50;;;;;;;;;;;;;;;4.84;100.00;101078.34;4971376;28;19917;-76
2023/12/14 03:16:16;;;;;;;;;;;;;;;4.83;100.00;101084.63;4986305;28;20487;-76
2023/12/14 03:18:42;;;;;;;;;;;;;;;4.86;100.00;101085.31;4988093;28;19917;-76
2023/12/14 03:21:08;;;;;;;;;;;;;;;4.85;100.00;101093.38;4970984;28;20295;-76
2023/12/14 03:23:33;;;;;;;;;;;;;;;4.86;100.00;101090.63;4965825;28;19980;-76
2023/12/14 03:25:58;;;;;;;;;;;;;;;4.82;100.00;101105.00;4990293;28;19926;-76
2023/12/14 03:28:24;;;;;;;;;;;;;;;4.86;100.00;101108.41;4972995;28;19976;-76
2023/12/14 03:30:49;;;;;;;;;;;;;;;4.79;100.00;101108.69;4973985;28;19969;-76
2023/12/14 03:33:14;;;;;;;;;;;;;;;4.80;100.00;101113.09;4983342;28;20370;-76
2023/12/14 03:35:41;;;;;;;;;;;;;;;4.77;100.00;101113.22;4968940;28;20009;-76
2023/12/14 03:38:07;;;;;;;;;;;;;;;4.73;100.00;101119.63;4998355;28;20452;-76
2023/12/14 03:40:32;;;;;;;;;;;;;;;4.73;100.00;101126.78;4983146;28;19933;-76
2023/12/14 03:42:57;;;;;;;;;;;;;;;4.79;100.00;101122.00;4982176;28;19967;-76
2023/12/14 03:45:22;;;;;;;;;;;;;;;4.78;100.00;101127.38;4966483;28;19965;-76
2023/12/14 03:47:47;;;;;;;;;;;;;;;4.73;100.00;101132.94;4983761;28;20020;-76
2023/12/14 03:50:13;;;;;;;;;;;;;;;4.74;100.00;101131.16;4968926;28;20019;-76
2023/12/14 03:52:38;;;;;;;;;;;;;;;4.69;100.00;101139.34;4984165;28;20259;-76
2023/12/14 03:55:03;;;;;;;;;;;;;;;4.70;100.00;101149.03;4969738;28;19928;-76
2023/12/14 03:57:28;;;;;;;;;;;;;;;4.67;100.00;101149.19;4982343;28;19959;-76
2023/12/14 03:59:54;;;;;;;;;;;;;;;4.66;100.00;101155.44;4980363;28;19986;-76
2023/12/14 04:02:19;;;;;;;;;;;;;;;4.64;100.00;101152.88;4969179;28;19963;-76
2023/12/14 04:04:46;;;;;;;;;;;;;;;4.69;100.00;101155.28;4982306;28;19950;-76
2023/12/14 04:07:12;;;;;;;;;;;;;;;4.72;100.00;101162.28;4979213;28;20032;-76
2023/12/14 04:09:37;;;;;;;;;;;;;;;4.73;100.00;101164.00;4982797;28;20059;-76
2023/12/14 04:12:02;;;;;;;;;;;;;;;4.72;100.00;101156.97;4984651;28;19988;-76
2023/12/14 04:14:28;;;;;;;;;;;;;;;4.73;100.00;101164.84;4978672;28;19921;-76
2023/12/14 04:16:54;;;;;;;;;;;;;;;4.75;100.00;101170.13;4967734;28;19929;-76
2023/12/14 04:19:19;;;;;;;;;;;;;;;4.73;100.00;101172.00;4971815;28;20016;-76
2023/12/14 04:21:44;;;;;;;;;;;;;;;4.70;100.00;101175.66;4979525;28;19948;-76
2023/12/14 04:24:12;;;;;;;;;;;;;;;4.71;100.00;101180.03;4971148;28;19954;-76
2023/12/14 04:26:37;;;;;;;;;;;;;;;4.65;100.00;101180.31;4981728;28;19922;-76
2023/12/14 04:29:02;;;;;;;;;;;;;;;4.65;100.00;101177.66;4984428;28;19932;-76
2023/12/14 04:31:28;;;;;;;;;;;;;;;4.64;100.00;101181.25;4992514;28;19928;-76
2023/12/14 04:33:53;;;;;;;;;;;;;;;4.66;100.00;101195.34;4984413;28;19944;-76
2023/12/14 04:36:18;;;;;;;;;;;;;;;4.64;100.00;101202.53;4972497;28;19925;-76
2023/12/14 04:38:45;;;;;;;;;;;;;;;4.57;100.00;101206.44;4985252;28;19925;-76
2023/12/14 04:41:11;;;;;;;;;;;;;;;4.64;100.00;101214.03;4988432;28;20249;-76
2023/12/14 04:43:36;;;;;;;;;;;;;;;4.63;100.00;101219.44;4987507;28;20317;-76
2023/12/14 04:46:02;;;;;;;;;;;;;;;4.64;100.00;101224.69;4992653;28;19986;-75
2023/12/14 04:48:27;;;;;;;;;;;;;;;4.68;100.00;101230.72;4991535;28;20012;-76
2023/12/14 04:50:52;;;;;;;;;;;;;;;4.68;100.00;101238.69;4987440;28;19932;-76
2023/12/14 04:53:18;;;;;;;;;;;;;;;4.70;100.00;101242.16;4990850;28;19924;-76
2023/12/14 04:55:43;;;;;;;;;;;;;;;4.72;100.00;101247.41;4988608;28;19921;-76
2023/12/14 04:58:08;;;;;;;;;;;;;;;4.72;100.00;101248.25;4980725;28;20024;-75
2023/12/14 05:00:34;;;;;;;;;;;;;;;4.74;100.00;101257.03;4996517;28;19921;-75
2023/12/14 05:02:59;;;;;;;;;;;;;;;4.73;100.00;101259.78;4973539;28;19922;-76
2023/12/14 05:05:24;;;;;;;;;;;;;;;4.73;100.00;101271.25;4992855;28;19928;-76
2023/12/14 05:07:49;;;;;;;;;;;;;;;4.68;100.00;101277.75;4985084;28;19929;-76
2023/12/14 05:10:14;;;;;;;;;;;;;;;4.69;100.00;101285.63;4991276;28;20460;-76
2023/12/14 05:12:40;;;;;;;;;;;;;;;4.66;100.00;101288.44;4979164;28;19948;-75
2023/12/14 05:15:05;;;;;;;;;;;;;;;4.71;100.00;101304.19;4973749;28;19921;-75
2023/12/14 05:17:30;;;;;;;;;;;;;;;4.74;100.00;101296.94;4989121;28;19926;-75
2023/12/14 05:19:56;;;;;;;;;;;;;;;4.76;100.00;101300.38;4987997;28;19932;-75
2023/12/14 05:22:21;;;;;;;;;;;;;;;4.76;100.00;101303.06;4977021;28;19922;-75
2023/12/14 05:24:47;;;;;;;;;;;;;;;4.77;100.00;101304.78;4974731;28;20047;-75
2023/12/14 05:27:12;;;;;;;;;;;;;;;4.77;100.00;101306.56;4988351;28;19922;-75
2023/12/14 05:29:37;;;;;;;;;;;;;;;4.78;100.00;101308.28;4967353;28;19926;-75
2023/12/14 05:32:02;;;;;;;;;;;;;;;4.76;100.00;101313.69;4975768;28;19965;-75
2023/12/14 05:34:27;;;;;;;;;;;;;;;4.77;100.00;101315.41;4970412;28;20252;-75
2023/12/14 05:36:53;;;;;;;;;;;;;;;4.80;100.00;101325.03;4985020;28;20327;-75
2023/12/14 05:39:18;;;;;;;;;;;;;;;4.82;100.00;101328.50;4972125;28;20008;-75
2023/12/14 05:41:43;;;;;;;;;;;;;;;4.72;100.00;101340.50;4985319;28;20028;-75
2023/12/14 05:44:09;;;;;;;;;;;;;;;4.72;100.00;101346.69;4990514;28;19956;-75
2023/12/14 05:46:35;;;;;;;;;;;;;;;4.74;100.00;101352.81;4984720;28;19987;-75
2023/12/14 05:49:01;;;;;;;;;;;;;;;4.72;100.00;101353.81;4985297;28;19931;-75
2023/12/14 05:51:29;;;;;;;;;;;;;;;4.74;100.00;101358.13;4970902;28;20292;-75
2023/12/14 05:53:54;;;;;;;;;;;;;;;4.73;100.00;101366.19;4989245;28;19999;-75
2023/12/14 05:56:19;;;;;;;;;;;;;;;4.74;100.00;101373.22;4984080;28;20416;-75
2023/12/14 05:58:45;;;;;;;;;;;;;;;4.77;100.00;101383.72;4984071;28;19953;-75
2023/12/14 06:01:10;;;;;;;;;;;;;;;4.77;100.00;101395.22;4986622;28;19929;-75
2023/12/14 06:03:35;;;;;;;;;;;;;;;4.78;100.00;101396.09;4985639;28;19921;-75
2023/12/14 06:06:00;;;;;;;;;;;;;;;4.77;100.00;101405.00;4987920;28;19936;-75
2023/12/14 06:08:26;;;;;;;;;;;;;;;4.72;100.00;101399.03;4989089;28;20318;-76
2023/12/14 06:10:51;;;;;;;;;;;;;;;4.71;100.00;101406.13;4986600;28;19922;-75
2023/12/14 06:13:16;;;;;;;;;;;;;;;4.67;100.00;101403.69;4987116;28;19928;-75
2023/12/14 06:15:41;;;;;;;;;;;;;;;4.61;100.00;101418.13;4985350;28;19926;-76
2023/12/14 06:18:06;;;;;;;;;;;;;;;4.65;100.00;101420.59;4985815;28;19917;-75
2023/12/14 06:20:32;;;;;;;;;;;;;;;4.59;100.00;101415.53;4990181;28;21153;-76
2023/12/14 06:22:57;;;;;;;;;;;;;;;4.55;100.00;101429.03;4975667;28;20390;-75
2023/12/14 06:25:22;;;;;;;;;;;;;;;4.64;100.00;101436.59;4990963;28;19932;-75
2023/12/14 06:27:47;;;;;;;;;;;;;;;4.56;100.00;101436.94;4996479;28;20717;-75
2023/12/14 06:30:13;;;;;;;;;;;;;;;4.57;100.00;101440.47;4989405;28;20385;-76
2023/12/14 06:32:38;;;;;;;;;;;;;;;4.64;100.00;101439.25;4993622;28;19921;-75
2023/12/14 06:35:04;;;;;;;;;;;;;;;4.61;100.00;101447.38;4989741;28;19921;-75
2023/12/14 06:37:29;;;;;;;;;;;;;;;4.33;100.00;101404.22;4994405;28;19936;-75
2023/12/14 06:39:54;;;;;;;;;;;;;;;4.63;100.00;101459.69;4990833;28;20272;-75
2023/12/14 06:42:19;;;;;;;;;;;;;;;4.66;100.00;101464.00;4991965;28;19957;-75
2023/12/14 06:44:44;;;;;;;;;;;;;;;4.63;100.00;101477.44;4991202;28;19961;-76
2023/12/14 06:47:10;;;;;;;;;;;;;;;4.66;100.00;101482.59;4990074;28;20008;-75
2023/12/14 06:49:35;;;;;;;;;;;;;;;4.64;100.00;101472.06;4987445;28;19931;-75
2023/12/14 06:52:00;;;;;;;;;;;;;;;4.63;100.00;101478.31;4984350;28;20756;-75
2023/12/14 06:54:25;;;;;;;;;;;;;;;4.62;100.00;101476.56;4967956;28;20372;-75
2023/12/14 06:56:50;;;;;;;;;;;;;;;4.62;100.00;101476.56;4987853;28;20011;-75
2023/12/14 06:59:16;;;;;;;;;;;;;;;4.56;100.00;101482.16;4990580;28;20261;-75
2023/12/14 07:01:41;;;;;;;;;;;;;;;4.54;100.00;101483.16;4973143;28;20341;-75
2023/12/14 07:04:07;;;;;;;;;;;;;;;4.57;100.00;101491.00;4983821;28;20606;-75
2023/12/14 07:06:34;;;;;;;;;;;;;;;4.56;100.00;101494.59;4986559;28;20134;-75
2023/12/14 07:09:00;;;;;;;;;;;;;;;4.59;100.00;101503.28;4987627;28;19925;-75
2023/12/14 07:11:25;;;;;;;;;;;;;;;4.43;100.00;101486.25;4993261;28;19991;-75
2023/12/14 07:13:50;;;;;;;;;;;;;;;4.58;100.00;101506.03;4986843;28;19987;-75
2023/12/14 07:16:17;;;;;;;;;;;;;;;4.57;100.00;101517.59;4983640;28;19922;-75
2023/12/14 07:18:42;;;;;;;;;;;;;;;4.58;100.00;101517.53;4988735;28;19948;-76
2023/12/14 07:21:08;;;;;;;;;;;;;;;4.53;100.00;101523.97;4989596;28;21038;-75
2023/12/14 07:23:33;;;;;;;;;;;;;;;4.52;100.00;101522.22;4985288;28;19921;-75
2023/12/14 07:25:58;;;;;;;;;;;;;;;4.53;100.00;101535.47;4989004;28;20513;-75
2023/12/14 07:28:24;;;;;;;;;;;;;;;4.53;100.00;101538.13;4974114;28;19932;-75
2023/12/14 07:30:51;;;;;;;;;;;;;;;4.50;100.00;101541.78;4988604;28;21500;-75
2023/12/14 07:33:16;;;;;;;;;;;;;;;4.55;100.00;101551.38;4987469;28;19922;-75
2023/12/14 07:35:42;;;;;;;;;;;;;;;4.54;100.00;101554.97;4988430;28;19928;-75
2023/12/14 07:38:08;;;;;;;;;;;;;;;4.55;100.00;101564.66;4968772;28;19925;-76
2023/12/14 07:40:33;;;;;;;;;;;;;;;4.54;100.00;101568.25;4963558;28;20475;-75
2023/12/14 07:42:58;;;;;;;;;;;;;;;4.55;100.00;101572.66;4969366;28;20435;-75
2023/12/14 07:45:24;;;;;;;;;;;;;;;4.52;100.00;101581.59;4984974;28;20465;-75
2023/12/14 07:47:49;;;;;;;;;;;;;;;4.52;100.00;101592.22;4969740;28;19926;-75
2023/12/14 07:50:14;;;;;;;;;;;;;;;4.57;100.00;101592.91;4973094;28;20442;-75
2023/12/14 07:52:40;;;;;;;;;;;;;;;4.52;100.00;101586.91;4984831;28;19968;-76
2023/12/14 07:55:05;;;;;;;;;;;;;;;4.53;100.00;101593.97;4971316;28;19922;-75
2023/12/14 07:57:31;;;;;;;;;;;;;;;4.53;100.00;101601.94;4969648;28;19925;-75
2023/12/14 07:59:56;;;;;;;;;;;;;;;4.52;100.00;101599.38;4988037;28;20557;-75
2023/12/14 08:02:21;;;;;;;;;;;;;;;4.49;100.00;101608.34;4970523;28;19957;-75
2023/12/14 08:04:47;;;;;;;;;;;;;;;4.52;100.00;101608.19;4973839;28;20051;-75
2023/12/14 08:07:12;;;;;;;;;;;;;;;4.52;100.00;101618.84;4976867;28;20295;-75
2023/12/14 08:09:37;;;;;;;;;;;;;;;4.51;100.00;101622.41;4975404;28;20306;-75
2023/12/14 08:12:02;;;;;;;;;;;;;;;4.58;100.00;101629.22;4987588;28;20808;-75
2023/12/14 08:14:28;;;;;;;;;;;;;;;4.55;100.00;101631.16;4972387;28;20462;-76
2023/12/14 08:16:53;;;;;;;;;;;;;;;4.58;100.00;101631.88;4973400;28;20384;-75
2023/12/14 08:19:18;;;;;;;;;;;;;;;4.56;100.00;101635.56;4975306;28;20431;-75
2023/12/14 08:21:43;;;;;;;;;;;;;;;4.58;100.00;101650.50;4984301;28;19921;-75
2023/12/14 08:24:08;;;;;;;;;;;;;;;4.59;100.00;101659.38;4985037;28;20229;-75
2023/12/14 08:26:34;;;;;;;;;;;;;;;4.58;100.00;101658.50;4967877;28;19971;-76
2023/12/14 08:28:59;;;;;;;;;;;;;;;4.54;100.00;101658.69;4976404;28;19975;-76
2023/12/14 08:31:25;;;;;;;;;;;;;;;4.50;100.00;101671.25;4989841;28;19995;-76
2023/12/14 08:33:52;;;;;;;;;;;;;;;4.51;100.00;101664.97;4983886;28;19968;-76
2023/12/14 08:36:17;;;;;;;;;;;;;;;4.50;100.00;101677.41;4973212;28;19925;-76
2023/12/14 08:38:42;;;;;;;;;;;;;;;4.48;100.00;101673.94;4989350;28;20407;-78
2023/12/14 08:41:07;;;;;;;;;;;;;;;4.47;100.00;101684.66;4977319;28;19921;-76
2023/12/14 08:43:32;;;;;;;;;;;;;;;4.44;100.00;101688.28;4991632;28;20342;-75
2023/12/14 08:45:58;;;;;;;;;;;;;;;4.39;100.00;101692.06;4990483;28;19925;-76
2023/12/14 08:48:23;;;;;;;;;;;;;;;4.26;100.00;101702.28;4973799;28;20309;-76
2023/12/14 08:50:48;;;;;;;;;;;;;;;4.30;100.00;101712.72;4982316;28;19933;-76
2023/12/14 08:53:14;;;;;;;;;;;;;;;4.26;100.00;101713.78;4987656;28;20423;-76
2023/12/14 08:55:39;;;;;;;;;;;;;;;4.30;100.00;101714.53;4978879;28;19929;-76
2023/12/14 08:58:04;;;;;;;;;;;;;;;4.14;100.00;101704.47;4986601;28;20353;-76
2023/12/14 09:00:29;;;;;;;;;;;;;;;4.30;100.00;101723.38;4992687;28;20274;-76
2023/12/14 09:02:55;;;;;;;;;;;;;;;4.24;100.00;101736.03;4990807;28;20393;-76
2023/12/14 09:05:20;;;;;;;;;;;;;;;4.24;100.00;101746.66;4987720;28;19928;-76
2023/12/14 09:07:46;;;;;;;;;;;;;;;4.27;100.00;101746.56;4987950;28;19929;-76
2023/12/14 09:10:11;;;;;;;;;;;;;;;4.23;100.00;101750.25;4988158;28;19926;-75
2023/12/14 09:12:36;;;;;;;;;;;;;;;4.16;100.00;101754.91;4985653;28;20542;-75
2023/12/14 09:15:02;;;;;;;;;;;;;;;4.13;100.00;101750.56;4973049;28;20459;-76
2023/12/14 09:17:32;;;;;;;;;;;;;;;4.21;100.00;101755.63;4990394;28;20421;-76
2023/12/14 09:19:57;;;;;;;;;;;;;;;4.18;100.00;101753.06;4988046;28;19922;-76
2023/12/14 09:22:23;;;;;;;;;;;;;;;4.19;100.00;101768.97;4992587;28;19928;-75
2023/12/14 09:24:48;;;;;;;;;;;;;;;4.32;100.00;101768.53;4988444;28;20069;-75
2023/12/14 09:27:13;;;;;;;;;;;;;;;4.30;100.00;101773.03;4974759;28;19921;-75
2023/12/14 09:29:38;;;;;;;;;;;;;;;4.31;100.00;101777.44;4992537;28;19932;-76
2023/12/14 09:32:04;;;;;;;;;;;;;;;4.31;100.00;101780.94;4986975;28;19921;-76
2023/12/14 09:34:29;;;;;;;;;;;;;;;4.38;100.00;101791.34;4988777;28;20392;-76
2023/12/14 09:36:54;;;;;;;;;;;;;;;4.34;100.00;101796.78;4974697;28;19929;-75
2023/12/14 09:39:21;;;;;;;;;;;;;;;4.40;100.00;101798.34;4994126;28;19975;-76
2023/12/14 09:41:47;;;;;;;;;;;;;;;4.42;100.00;101803.63;4987127;28;19921;-76
2023/12/14 09:44:12;;;;;;;;;;;;;;;4.43;100.00;101800.91;4991760;28;20363;-76
2023/12/14 09:46:38;;;;;;;;;;;;;;;4.51;100.00;101813.91;4996121;28;19984;-76
2023/12/14 09:49:04;;;;;;;;;;;;;;;4.53;100.00;101809.41;4986405;28;20017;-76
2023/12/14 09:51:29;;;;;;;;;;;;;;;4.42;100.00;101822.22;4990556;28;19922;-76
2023/12/14 09:53:57;;;;;;;;;;;;;;;4.41;100.00;101825.81;4990226;28;19929;-76
2023/12/14 09:56:26;;;;;;;;;;;;;;;4.41;100.00;101828.47;4993085;28;19922;-76
2023/12/14 09:58:51;;;;;;;;;;;;;;;4.45;100.00;101840.75;4991981;28;19945;-76
2023/12/14 10:01:24;;;;;;;;;;;;;;;4.44;100.00;101841.66;4989228;28;19922;-76
2023/12/14 10:03:49;;;;;;;;;;;;;;;4.45;100.00;101843.41;4993767;28;19922;-75
2023/12/14 10:06:14;;;;;;;;;;;;;;;4.47;100.00;101847.72;4992166;28;20283;-76
2023/12/14 10:08:39;;;;;;;;;;;;;;;4.53;100.00;101851.94;4990629;28;21040;-76
2023/12/14 10:11:07;;;;;;;;;;;;;;;4.52;100.00;101863.50;4994109;28;20390;-76
2023/12/14 10:13:37;;;;;;;;;;;;;;;4.46;100.00;101864.59;4976595;28;20023;-75
2023/12/14 10:16:02;;;;;;;;;;;;;;;4.37;100.00;101874.72;4987045;28;19929;-76
2023/12/14 10:18:29;;;;;;;;;;;;;;;4.44;100.00;101878.91;4990422;28;19921;-75
2023/12/14 10:20:54;;;;;;;;;;;;;;;4.44;100.00;101884.22;4971347;28;19963;-75
2023/12/14 10:23:20;;;;;;;;;;;;;;;4.35;100.00;101902.22;4975182;28;19922;-75
2023/12/14 10:25:46;;;;;;;;;;;;;;;4.39;100.00;101889.69;4984811;28;19921;-75
2023/12/14 10:28:12;;;;;;;;;;;;;;;4.41;100.00;101887.84;4974177;28;19956;-75
2023/12/14 10:30:37;;;;;;;;;;;;;;;4.46;100.00;101888.53;4990560;28;20373;-75
2023/12/14 10:33:03;;;;;;;;;;;;;;;4.40;100.00;101904.72;4992442;28;19968;-75
2023/12/14 10:35:28;;;;;;;;;;;;;;;4.41;100.00;101894.97;4975845;28;19975;-75
2023/12/14 10:37:54;;;;;;;;;;;;;;;4.36;100.00;101903.09;4993783;28;19932;-75
2023/12/14 10:40:19;;;;;;;;;;;;;;;4.40;100.00;101910.03;4977588;28;19926;-75
2023/12/14 10:42:44;;;;;;;;;;;;;;;4.38;100.00;101909.22;4976150;28;20284;-75
2023/12/14 10:45:11;;;;;;;;;;;;;;;4.41;100.00;101911.78;4990299;28;20108;-75
2023/12/14 10:47:36;;;;;;;;;;;;;;;4.35;100.00;101917.31;4971041;28;20032;-75
2023/12/14 10:50:01;;;;;;;;;;;;;;;4.40;100.00;101911.84;4989208;28;19926;-75
2023/12/14 10:52:26;;;;;;;;;;;;;;;4.35;100.00;101920.84;4991219;28;19928;-75
2023/12/14 10:54:52;;;;;;;;;;;;;;;4.41;100.00;101910.91;4992838;28;20154;-75
2023/12/14 10:57:17;;;;;;;;;;;;;;;4.43;100.00;101909.94;4992156;28;19972;-75
2023/12/14 10:59:43;;;;;;;;;;;;;;;4.44;100.00;101905.50;4992639;28;19926;-75
2023/12/14 11:02:12;;;;;;;;;;;;;;;4.30;100.00;101880.22;4990199;28;19972;-75
2023/12/14 11:04:56;;;;;;;;;;;;;;;4.56;100.00;101913.03;4990735;28;19929;-75
2023/12/14 11:07:40;;;;;;;;;;;;;;;4.48;100.00;101912.44;4990104;28;19925;-75
2023/12/14 11:10:06;;;;;;;;;;;;;;;4.42;100.00;101917.97;4987666;28;19976;-75
2023/12/14 11:12:32;;;;;;;;;;;;;;;4.42;100.00;101929.47;4990495;28;20023;-75
2023/12/14 11:14:57;;;;;;;;;;;;;;;4.30;100.00;101927.25;4990469;28;19924;-75
2023/12/14 11:17:22;;;;;;;;;;;;;;;4.26;100.00;101936.22;4971931;28;20316;-76
2023/12/14 11:19:50;;;;;;;;;;;;;;;4.22;100.00;101939.91;4991190;28;20504;-75
2023/12/14 11:22:23;;;;;;;;;;;;;;;4.24;100.00;101948.72;4991071;28;19917;-75
2023/12/14 11:24:52;;;;;;;;;;;;;;;4.27;100.00;101948.59;4976259;28;20131;-75
2023/12/14 11:27:19;;;;;;;;;;;;;;;4.28;100.00;101951.19;4988365;28;19921;-75
2023/12/14 11:29:44;;;;;;;;;;;;;;;4.34;100.00;101945.69;4971183;28;19932;-75
2023/12/14 11:32:10;;;;;;;;;;;;;;;4.39;100.00;101952.66;4987486;28;19925;-75
2023/12/14 11:34:35;;;;;;;;;;;;;;;4.34;100.00;101953.66;4989180;28;19928;-76
2023/12/14 11:37:00;;;;;;;;;;;;;;;4.33;100.00;101959.03;4997022;28;20312;-75
2023/12/14 11:39:29;;;;;;;;;;;;;;;4.31;100.00;101967.06;4978089;28;20402;-75
2023/12/14 11:42:02;;;;;;;;;;;;;;;4.32;100.00;101965.28;4988620;28;19921;-75
2023/12/14 11:44:27;;;;;;;;;;;;;;;4.31;100.00;101967.06;4976475;28;19917;-75
2023/12/14 11:46:52;;;;;;;;;;;;;;;4.39;100.00;101971.25;4988118;28;19948;-75
2023/12/14 11:49:17;;;;;;;;;;;;;;;4.43;100.00;101972.91;4971919;28;20001;-75
2023/12/14 11:51:45;;;;;;;;;;;;;;;4.32;100.00;101974.13;4976152;28;20617;-75
2023/12/14 11:54:10;;;;;;;;;;;;;;;4.39;100.00;101968.59;4990393;28;19925;-75
2023/12/14 11:56:35;;;;;;;;;;;;;;;4.31;100.00;101983.00;4976701;28;20387;-75
2023/12/14 11:59:01;;;;;;;;;;;;;;;4.40;100.00;101970.34;4977789;28;20340;-75
2023/12/14 12:01:28;;;;;;;;;;;;;;;4.48;100.00;101963.84;4969980;28;20435;-75
2023/12/14 12:03:53;;;;;;;;;;;;;;;4.64;100.00;101965.94;4987744;28;20432;-75
2023/12/14 12:06:25;;;;;;;;;;;;;;;4.74;100.00;101966.53;4991017;28;19928;-75
2023/12/14 12:08:50;;;;;;;;;;;;;;;4.82;100.00;101958.25;4973023;28;19921;-76
2023/12/14 12:11:16;;;;;;;;;;;;;;;4.89;100.00;101960.63;4989021;28;20011;-75
2023/12/14 12:13:42;;;;;;;;;;;;;;;5.04;100.00;101964.53;4972280;28;20047;-75
2023/12/14 12:16:07;;;;;;;;;;;;;;;5.10;100.00;101968.75;4988078;28;20858;-75
2023/12/14 12:18:32;;;;;;;;;;;;;;;5.12;100.00;101964.25;4988781;28;20361;-75
2023/12/14 12:21:03;;;;;;;;;;;;;;;5.11;100.00;101965.19;4976877;28;19918;-75
2023/12/14 12:23:29;;;;;;;;;;;;;;;5.16;100.00;101967.69;4986936;28;20521;-75
2023/12/14 12:25:55;;;;;;;;;;;;;;;5.15;100.00;101968.63;4974705;28;19925;-75
2023/12/14 12:28:20;;;;;;;;;;;;;;;5.19;100.00;101968.44;4974325;28;19922;-75